createdAt,value
2019-05-28T00:00:34.641Z,91.20
2019-05-28T00:03:05.434Z,92.00
2019-05-28T00:05:35.577Z,92.50
2019-05-28T00:08:05.751Z,93.40
2019-05-28T00:10:37.273Z,93.40
2019-05-28T00:13:07.603Z,93.00
2019-05-28T00:15:38.891Z,92.40
2019-05-28T00:18:10.479Z,93.00
2019-05-28T00:20:41.444Z,93.60
2019-05-28T00:23:11.931Z,93.60
2019-05-28T00:25:42.095Z,93.90
2019-05-28T00:28:12.550Z,94.80
2019-05-28T00:30:42.951Z,95.10
2019-05-28T00:33:13.274Z,96.60
2019-05-28T00:35:43.595Z,97.00
2019-05-28T00:38:13.937Z,96.80
2019-05-28T00:40:44.567Z,98.00
2019-05-28T00:43:15.973Z,98.70
2019-05-28T00:45:46.328Z,99.20
2019-05-28T00:48:17.932Z,99.20
2019-05-28T00:50:48.159Z,98.80
2019-05-28T00:53:18.461Z,99.60
2019-05-28T00:55:50.236Z,99.60
2019-05-28T00:58:21.777Z,99.70
2019-05-28T01:00:52.724Z,99.50
2019-05-28T01:03:26.997Z,99.80
2019-05-28T01:06:06.130Z,99.50
2019-05-28T01:08:38.654Z,99.60
2019-05-28T01:11:09.165Z,99.80
2019-05-28T01:13:39.539Z,99.90
2019-05-28T01:16:09.962Z,99.90
2019-05-28T01:18:40.360Z,99.90
2019-05-28T01:21:10.549Z,99.90
2019-05-28T01:23:40.693Z,99.90
2019-05-28T01:26:10.965Z,99.90
2019-05-28T01:28:41.070Z,99.90
2019-05-28T01:31:11.777Z,99.90
2019-05-28T01:33:43.258Z,99.90
2019-05-28T01:36:13.515Z,99.90
2019-05-28T01:38:44.498Z,99.90
2019-05-28T01:41:15.318Z,99.90
2019-05-28T01:43:45.940Z,99.90
2019-05-28T01:46:16.041Z,99.90
2019-05-28T01:48:46.488Z,99.90
2019-05-28T01:51:16.620Z,99.90
2019-05-28T01:53:47.513Z,99.90
2019-05-28T01:56:17.682Z,99.90
2019-05-28T01:58:48.627Z,99.90
2019-05-28T02:01:19.156Z,99.90
2019-05-28T02:03:49.858Z,99.90
2019-05-28T02:06:20.302Z,99.90
2019-05-28T02:08:51.116Z,99.90
2019-05-28T02:11:21.336Z,99.90
2019-05-28T02:13:51.971Z,99.90
2019-05-28T02:16:22.583Z,99.90
2019-05-28T02:18:53.183Z,99.90
2019-05-28T02:21:24.102Z,99.90
2019-05-28T02:23:54.239Z,99.90
2019-05-28T02:26:24.962Z,99.90
2019-05-28T02:28:55.762Z,99.90
2019-05-28T02:31:28.080Z,99.90
2019-05-28T02:33:58.044Z,99.90
2019-05-28T02:36:28.265Z,99.90
2019-05-28T02:38:58.491Z,99.90
2019-05-28T02:41:29.326Z,99.90
2019-05-28T02:43:59.465Z,99.90
2019-05-28T02:46:30.184Z,99.90
2019-05-28T02:49:01.000Z,99.90
2019-05-28T02:51:31.400Z,99.90
2019-05-28T02:54:02.089Z,99.90
2019-05-28T02:56:33.240Z,99.90
2019-05-28T02:59:03.808Z,99.90
2019-05-28T03:01:44.417Z,99.90
2019-05-28T03:04:07.729Z,99.90
2019-05-28T03:06:43.171Z,99.90
2019-05-28T03:09:14.187Z,99.90
2019-05-28T03:11:44.682Z,99.90
2019-05-28T03:14:15.740Z,99.90
2019-05-28T03:16:48.909Z,99.90
2019-05-28T03:19:19.854Z,99.90
2019-05-28T03:21:50.955Z,99.90
2019-05-28T03:24:22.040Z,99.90
2019-05-28T03:26:52.333Z,99.90
2019-05-28T03:29:22.859Z,99.90
2019-05-28T03:32:07.294Z,99.90
2019-05-28T03:34:24.967Z,99.90
2019-05-28T03:36:56.741Z,99.90
2019-05-28T03:39:28.562Z,99.90
2019-05-28T03:41:58.777Z,99.90
2019-05-28T03:44:29.316Z,99.90
2019-05-28T03:46:59.864Z,99.90
2019-05-28T03:49:30.154Z,99.90
2019-05-28T03:52:00.665Z,99.90
2019-05-28T03:54:30.752Z,99.90
2019-05-28T03:57:01.798Z,99.90
2019-05-28T03:59:32.265Z,99.90
2019-05-28T04:02:02.880Z,99.90
2019-05-28T04:04:37.464Z,99.90
2019-05-28T04:07:07.795Z,99.90
2019-05-28T04:09:38.070Z,99.90
2019-05-28T04:12:09.087Z,99.90
2019-05-28T04:14:39.407Z,99.90
2019-05-28T04:17:09.647Z,99.90
2019-05-28T04:19:39.899Z,99.90
2019-05-28T04:22:09.996Z,99.90
2019-05-28T04:24:40.937Z,99.90
2019-05-28T04:27:11.578Z,99.90
2019-05-28T04:29:42.732Z,99.90
2019-05-28T04:32:12.892Z,99.90
2019-05-28T04:34:43.138Z,99.90
2019-05-28T04:37:13.399Z,99.90
2019-05-28T04:39:43.999Z,99.90
2019-05-28T04:42:14.883Z,99.90
2019-05-28T04:44:46.032Z,99.90
2019-05-28T04:47:16.273Z,99.90
2019-05-28T04:49:47.159Z,99.90
2019-05-28T04:52:18.864Z,99.90
2019-05-28T04:54:50.458Z,99.90
2019-05-28T04:57:21.531Z,99.90
2019-05-28T04:59:52.125Z,99.90
2019-05-28T05:02:22.835Z,99.90
2019-05-28T05:04:54.522Z,99.90
2019-05-28T05:07:26.256Z,99.20
2019-05-28T05:09:56.971Z,98.10
2019-05-28T05:12:27.142Z,96.70
2019-05-28T05:14:57.686Z,95.50
2019-05-28T05:17:30.388Z,95.50
2019-05-28T05:20:00.702Z,95.10
2019-05-28T05:22:31.162Z,95.90
2019-05-28T05:25:01.410Z,96.90
2019-05-28T05:27:33.447Z,97.00
2019-05-28T05:30:03.660Z,98.70
2019-05-28T05:32:34.306Z,98.70
2019-05-28T05:35:04.914Z,98.90
2019-05-28T05:37:35.684Z,99.60
2019-05-28T05:40:06.537Z,99.60
2019-05-28T05:42:37.337Z,99.70
2019-05-28T05:45:08.321Z,98.20
2019-05-28T05:47:38.649Z,97.80
2019-05-28T05:50:09.147Z,97.00
2019-05-28T05:52:39.427Z,96.20
2019-05-28T05:55:11.128Z,95.20
2019-05-28T05:57:41.864Z,93.20
2019-05-28T06:00:12.930Z,91.90
2019-05-28T06:02:43.298Z,92.20
2019-05-28T06:05:13.947Z,91.10
2019-05-28T06:07:44.800Z,91.70
2019-05-28T06:10:15.364Z,91.70
2019-05-28T06:12:46.143Z,92.30
2019-05-28T06:15:17.397Z,92.40
2019-05-28T06:17:48.150Z,91.60
2019-05-28T06:20:18.903Z,90.50
2019-05-28T06:22:49.579Z,90.70
2019-05-28T06:25:20.428Z,89.50
2019-05-28T06:27:51.104Z,91.90
2019-05-28T06:30:21.531Z,92.10
2019-05-28T06:32:52.433Z,90.60
2019-05-28T06:35:22.683Z,90.60
2019-05-28T06:37:53.465Z,90.70
2019-05-28T06:40:24.595Z,89.40
2019-05-28T06:42:55.319Z,87.10
2019-05-28T06:45:25.953Z,86.40
2019-05-28T06:47:56.546Z,86.20
2019-05-28T06:50:26.778Z,86.40
2019-05-28T06:52:57.185Z,88.10
2019-05-28T06:55:27.335Z,88.00
2019-05-28T06:57:57.484Z,86.60
2019-05-28T07:00:28.425Z,84.00
2019-05-28T07:02:59.196Z,83.10
2019-05-28T07:05:29.389Z,79.90
2019-05-28T07:08:00.020Z,78.50
2019-05-28T07:10:33.300Z,78.20
2019-05-28T07:13:04.605Z,76.70
2019-05-28T07:15:34.976Z,75.20
2019-05-28T07:18:05.100Z,74.50
2019-05-28T07:20:36.052Z,76.20
2019-05-28T07:23:06.320Z,77.00
2019-05-28T07:25:37.994Z,75.80
2019-05-28T07:28:11.616Z,74.40
2019-05-28T07:30:40.812Z,72.00
2019-05-28T07:33:18.501Z,72.50
2019-05-28T07:35:49.833Z,72.10
2019-05-28T07:38:20.498Z,72.50
2019-05-28T07:40:51.240Z,72.80
2019-05-28T07:43:21.962Z,73.70
2019-05-28T07:45:52.504Z,73.60
2019-05-28T07:48:23.335Z,71.10
2019-05-28T07:50:54.044Z,70.30
2019-05-28T07:53:38.719Z,71.30
2019-05-28T07:55:57.122Z,71.40
2019-05-28T07:58:27.882Z,71.60
2019-05-28T08:00:58.179Z,71.40
2019-05-28T08:03:29.580Z,71.70
2019-05-28T08:06:00.176Z,69.60
2019-05-28T08:08:30.508Z,69.20
2019-05-28T08:11:01.106Z,68.30
2019-05-28T08:13:40.664Z,68.20
2019-05-28T08:16:17.547Z,68.90
2019-05-28T08:18:37.714Z,69.00
2019-05-28T08:21:13.436Z,68.30
2019-05-28T08:23:49.440Z,70.20
2019-05-28T08:26:26.000Z,70.80
2019-05-28T08:28:59.560Z,73.20
2019-05-28T08:31:33.090Z,79.20
2019-05-28T08:34:03.263Z,83.00
2019-05-28T08:36:33.387Z,87.00
2019-05-28T08:39:04.388Z,89.10
2019-05-28T08:41:37.320Z,90.80
2019-05-28T08:44:11.891Z,82.90
2019-05-28T08:46:43.756Z,83.00
2019-05-28T08:49:17.302Z,80.60
2019-05-28T08:51:48.066Z,80.50
2019-05-28T08:54:21.594Z,77.60
2019-05-28T08:56:51.923Z,74.50
2019-05-28T08:59:22.088Z,74.30
2019-05-28T09:01:53.977Z,69.90
2019-05-28T09:04:24.332Z,70.20
2019-05-28T09:06:54.549Z,69.70
2019-05-28T09:09:25.241Z,69.60
2019-05-28T09:11:55.664Z,72.90
2019-05-28T09:14:26.206Z,73.30
2019-05-28T09:16:56.537Z,72.50
2019-05-28T09:19:27.163Z,67.70
2019-05-28T09:21:57.489Z,65.50
2019-05-28T09:24:28.056Z,64.90
2019-05-28T09:26:58.364Z,59.80
2019-05-28T09:29:28.755Z,59.20
2019-05-28T09:31:59.028Z,59.80
2019-05-28T09:34:33.491Z,59.10
2019-05-28T09:37:04.071Z,60.20
2019-05-28T09:39:34.496Z,59.90
2019-05-28T09:42:04.759Z,58.40
2019-05-28T09:44:35.524Z,59.30
2019-05-28T09:47:06.635Z,60.00
2019-05-28T09:49:36.954Z,61.50
2019-05-28T09:52:07.655Z,62.20
2019-05-28T09:54:38.440Z,62.10
2019-05-28T09:57:08.592Z,61.60
2019-05-28T09:59:41.843Z,62.20
2019-05-28T10:02:11.170Z,55.70
2019-05-28T10:04:49.634Z,56.10
2019-05-28T10:07:15.884Z,54.00
2019-05-28T10:09:46.265Z,53.20
2019-05-28T10:12:16.605Z,50.50
2019-05-28T10:14:47.716Z,49.10
2019-05-28T10:17:18.520Z,51.30
2019-05-28T10:19:48.709Z,51.40
2019-05-28T10:22:20.205Z,52.00
2019-05-28T10:24:50.732Z,50.40
2019-05-28T10:27:21.522Z,48.30
2019-05-28T10:29:52.119Z,48.70
2019-05-28T10:32:23.141Z,47.40
2019-05-28T10:35:03.589Z,46.50
2019-05-28T10:37:26.787Z,46.40
2019-05-28T10:39:57.417Z,46.60
2019-05-28T10:42:27.677Z,46.30
2019-05-28T10:44:57.952Z,45.80
2019-05-28T10:47:28.373Z,44.90
2019-05-28T10:49:59.115Z,45.50
2019-05-28T10:52:29.426Z,45.10
2019-05-28T10:55:02.642Z,45.20
2019-05-28T10:57:31.920Z,45.60
2019-05-28T11:00:03.072Z,46.00
2019-05-28T11:02:33.824Z,46.00
2019-05-28T11:05:04.802Z,47.40
2019-05-28T11:07:35.468Z,46.60
2019-05-28T11:10:22.437Z,49.90
2019-05-28T11:12:39.407Z,51.50
2019-05-28T11:15:10.810Z,53.00
2019-05-28T11:17:41.194Z,53.60
2019-05-28T11:20:12.902Z,52.40
2019-05-28T11:22:43.744Z,53.20
2019-05-28T11:25:15.231Z,52.40
2019-05-28T11:27:45.490Z,51.90
2019-05-28T11:30:17.790Z,50.50
2019-05-28T11:32:48.001Z,51.30
2019-05-28T11:35:19.180Z,50.60
2019-05-28T11:37:50.091Z,51.30
2019-05-28T11:40:22.764Z,50.20
2019-05-28T11:42:53.426Z,50.30
2019-05-28T11:45:23.836Z,50.00
2019-05-28T11:47:54.143Z,57.20
2019-05-28T11:50:25.257Z,84.10
2019-05-28T11:52:55.769Z,99.90
2019-05-28T11:55:27.347Z,99.90
2019-05-28T11:57:57.907Z,99.90
2019-05-28T12:00:30.072Z,99.90
2019-05-28T12:03:00.261Z,99.90
2019-05-28T12:05:30.517Z,99.90
2019-05-28T12:08:00.788Z,99.90
2019-05-28T12:10:31.232Z,99.90
2019-05-28T12:13:01.868Z,99.90
2019-05-28T12:15:33.659Z,99.90
2019-05-28T12:18:04.375Z,99.90
2019-05-28T12:20:34.970Z,99.90
2019-05-28T12:23:11.139Z,99.90
2019-05-28T12:25:37.265Z,99.90
2019-05-28T12:28:07.502Z,99.90
2019-05-28T12:30:37.998Z,99.90
2019-05-28T12:33:08.446Z,99.90
2019-05-28T12:35:42.942Z,99.90
2019-05-28T12:38:12.268Z,99.90
2019-05-28T12:40:47.857Z,99.90
2019-05-28T12:43:14.794Z,99.90
2019-05-28T12:45:45.505Z,90.70
2019-05-28T12:48:15.888Z,95.20
2019-05-28T12:50:46.464Z,99.90
2019-05-28T12:53:17.630Z,99.90
2019-05-28T12:55:48.118Z,99.90
2019-05-28T12:58:18.842Z,92.50
2019-05-28T13:00:49.361Z,83.80
2019-05-28T13:03:19.609Z,92.00
2019-05-28T13:05:49.804Z,99.90
2019-05-28T13:08:21.382Z,79.70
2019-05-28T13:10:52.752Z,73.90
2019-05-28T13:13:23.652Z,70.80
2019-05-28T13:15:54.142Z,75.00
2019-05-28T13:18:24.354Z,70.00
2019-05-28T13:20:54.841Z,64.30
2019-05-28T13:23:25.653Z,68.20
2019-05-28T13:25:55.798Z,67.40
2019-05-28T13:28:25.950Z,67.10
2019-05-28T13:30:56.557Z,70.20
2019-05-28T13:33:26.989Z,64.80
2019-05-28T13:35:57.128Z,64.80
2019-05-28T13:38:27.959Z,62.80
2019-05-28T13:40:58.761Z,62.80
2019-05-28T13:43:29.270Z,61.30
2019-05-28T13:46:00.225Z,57.00
2019-05-28T13:48:30.846Z,59.80
2019-05-28T13:51:01.139Z,57.40
2019-05-28T13:53:34.183Z,54.90
2019-05-28T13:56:04.715Z,56.40
2019-05-28T13:58:35.399Z,56.00
2019-05-28T14:01:05.910Z,57.80
2019-05-28T14:03:37.420Z,58.50
2019-05-28T14:06:07.728Z,56.90
2019-05-28T14:08:46.555Z,56.50
2019-05-28T14:11:10.280Z,57.30
2019-05-28T14:13:40.797Z,57.80
2019-05-28T14:16:11.173Z,57.30
2019-05-28T14:18:41.499Z,56.80
2019-05-28T14:21:11.989Z,56.50
2019-05-28T14:23:42.311Z,57.90
2019-05-28T14:26:12.710Z,56.90
2019-05-28T14:28:42.899Z,57.10
2019-05-28T14:31:13.925Z,57.00
2019-05-28T14:33:44.661Z,60.30
2019-05-28T14:36:15.801Z,59.00
2019-05-28T14:39:01.253Z,57.30
2019-05-28T14:41:17.840Z,56.90
2019-05-28T14:43:48.311Z,56.70
2019-05-28T14:46:18.988Z,55.90
2019-05-28T14:48:49.677Z,55.10
2019-05-28T14:51:21.003Z,55.50
2019-05-28T14:53:51.996Z,55.90
2019-05-28T14:56:22.593Z,56.20
2019-05-28T14:58:53.225Z,56.00
2019-05-28T15:01:23.653Z,55.10
2019-05-28T15:03:55.395Z,54.30
2019-05-28T15:06:26.087Z,53.90
2019-05-28T15:08:56.402Z,52.90
2019-05-28T15:11:27.576Z,50.30
2019-05-28T15:13:58.109Z,52.30
2019-05-28T15:16:28.966Z,54.20
2019-05-28T15:18:59.733Z,53.90
2019-05-28T15:21:30.075Z,53.00
2019-05-28T15:24:05.398Z,53.00
2019-05-28T15:26:35.471Z,54.10
2019-05-28T15:29:07.743Z,54.20
2019-05-28T15:31:38.136Z,54.50
2019-05-28T15:34:08.771Z,53.50
2019-05-28T15:36:39.399Z,54.10
2019-05-28T15:39:09.547Z,54.00
2019-05-28T15:41:43.511Z,53.90
2019-05-28T15:44:16.762Z,53.80
2019-05-28T15:46:47.166Z,53.60
2019-05-28T15:49:17.654Z,53.10
2019-05-28T15:52:06.987Z,52.70
2019-05-28T15:54:25.622Z,50.20
2019-05-28T15:56:56.771Z,50.10
2019-05-28T15:59:27.409Z,48.90
2019-05-28T16:01:57.845Z,49.50
2019-05-28T16:04:28.956Z,50.30
2019-05-28T16:07:05.318Z,50.30
2019-05-28T16:09:35.474Z,50.80
2019-05-28T16:12:07.222Z,51.90
2019-05-28T16:14:37.444Z,49.50
2019-05-28T16:17:08.245Z,50.70
2019-05-28T16:19:38.813Z,50.50
2019-05-28T16:22:09.391Z,49.90
2019-05-28T16:24:39.507Z,50.80
2019-05-28T16:27:09.878Z,51.50
2019-05-28T16:29:40.350Z,51.80
2019-05-28T16:32:10.673Z,51.90
2019-05-28T16:34:41.375Z,51.80
2019-05-28T16:37:12.010Z,51.90
2019-05-28T16:39:42.560Z,52.40
2019-05-28T16:42:13.864Z,52.50
2019-05-28T16:44:44.554Z,52.30
2019-05-28T16:47:18.314Z,52.30
2019-05-28T16:49:47.419Z,52.70
2019-05-28T16:52:18.920Z,53.20
2019-05-28T16:54:49.745Z,53.90
2019-05-28T16:57:20.374Z,54.20
2019-05-28T16:59:51.010Z,54.40
2019-05-28T17:02:21.284Z,54.90
2019-05-28T17:04:51.687Z,55.10
2019-05-28T17:07:22.476Z,55.40
2019-05-28T17:09:55.804Z,56.10
2019-05-28T17:12:26.224Z,56.10
2019-05-28T17:15:01.886Z,55.90
2019-05-28T17:17:34.453Z,55.50
2019-05-28T17:20:06.299Z,56.40
2019-05-28T17:22:38.059Z,54.60
2019-05-28T17:25:11.939Z,55.30
2019-05-28T17:27:41.124Z,56.00
2019-05-28T17:30:19.150Z,55.70
2019-05-28T17:32:44.912Z,55.00
2019-05-28T17:35:15.866Z,55.70
2019-05-28T17:37:47.516Z,55.90
2019-05-28T17:40:21.946Z,54.10
2019-05-28T17:42:50.281Z,52.10
2019-05-28T17:45:21.121Z,53.30
2019-05-28T17:47:51.584Z,53.80
2019-05-28T17:50:22.238Z,53.70
2019-05-28T17:52:52.698Z,53.90
2019-05-28T17:55:24.577Z,53.40
2019-05-28T17:57:56.556Z,51.90
2019-05-28T18:00:26.820Z,51.10
2019-05-28T18:02:57.241Z,52.60
2019-05-28T18:05:28.084Z,52.80
2019-05-28T18:08:05.296Z,52.40
2019-05-28T18:10:35.804Z,52.80
2019-05-28T18:13:06.464Z,54.30
2019-05-28T18:15:36.757Z,53.90
2019-05-28T18:18:07.498Z,53.90
2019-05-28T18:20:38.042Z,53.50
2019-05-28T18:23:08.290Z,53.40
2019-05-28T18:25:39.415Z,54.50
2019-05-28T18:28:11.553Z,54.70
2019-05-28T18:30:42.810Z,54.80
2019-05-28T18:33:13.188Z,54.70
2019-05-28T18:35:43.823Z,55.30
2019-05-28T18:38:17.543Z,55.00
2019-05-28T18:40:49.492Z,55.70
2019-05-28T18:43:20.048Z,55.10
2019-05-28T18:45:50.454Z,55.20
2019-05-28T18:48:21.903Z,55.40
2019-05-28T18:50:53.716Z,55.80
2019-05-28T18:53:26.530Z,56.50
2019-05-28T18:55:58.403Z,57.20
2019-05-28T18:58:34.769Z,58.00
2019-05-28T19:01:11.795Z,58.70
2019-05-28T19:03:50.965Z,59.40
2019-05-28T19:06:26.779Z,60.00
2019-05-28T19:08:59.405Z,60.70
2019-05-28T19:11:37.838Z,61.40
2019-05-28T19:14:03.543Z,62.30
2019-05-28T19:16:34.989Z,63.00
2019-05-28T19:19:05.631Z,63.90
2019-05-28T19:21:36.302Z,64.60
2019-05-28T19:24:07.393Z,65.40
2019-05-28T19:26:38.299Z,66.40
2019-05-28T19:29:09.491Z,66.70
2019-05-28T19:31:39.909Z,67.70
2019-05-28T19:34:13.792Z,68.20
2019-05-28T19:36:44.613Z,68.70
2019-05-28T19:39:16.258Z,69.20
2019-05-28T19:41:54.159Z,69.70
2019-05-28T19:44:19.477Z,69.90
2019-05-28T19:46:49.963Z,70.30
2019-05-28T19:49:20.830Z,70.40
2019-05-28T19:51:52.854Z,70.00
2019-05-28T19:54:27.017Z,69.50
2019-05-28T19:56:57.662Z,69.70
2019-05-28T19:59:28.587Z,68.90
2019-05-28T20:01:58.852Z,69.00
2019-05-28T20:04:29.382Z,69.40
2019-05-28T20:07:00.243Z,69.60
2019-05-28T20:09:30.971Z,69.20
2019-05-28T20:12:12.274Z,68.30
2019-05-28T20:14:34.218Z,68.60
2019-05-28T20:17:05.274Z,69.20
2019-05-28T20:19:36.565Z,68.40
2019-05-28T20:22:07.698Z,68.00
2019-05-28T20:24:38.296Z,68.50
2019-05-28T20:27:11.502Z,67.70
2019-05-28T20:29:42.631Z,67.80
2019-05-28T20:32:13.480Z,67.50
2019-05-28T20:34:44.463Z,67.80
2019-05-28T20:37:15.563Z,68.00
2019-05-28T20:39:46.055Z,67.80
2019-05-28T20:42:26.950Z,68.20
2019-05-28T20:44:49.692Z,68.50
2019-05-28T20:47:20.526Z,68.90
2019-05-28T20:49:50.703Z,68.90
2019-05-28T20:52:21.592Z,69.50
2019-05-28T20:54:52.944Z,69.50
2019-05-28T20:57:23.895Z,69.60
2019-05-28T20:59:54.334Z,69.70
2019-05-28T21:02:25.388Z,70.20
2019-05-28T21:04:56.743Z,70.10
2019-05-28T21:07:27.309Z,70.80
2019-05-28T21:09:58.524Z,70.80
2019-05-28T21:12:42.807Z,70.80
2019-05-28T21:15:01.555Z,71.20
2019-05-28T21:17:32.404Z,71.50
2019-05-28T21:20:07.915Z,72.10
2019-05-28T21:22:38.378Z,72.00
2019-05-28T21:25:09.703Z,72.40
2019-05-28T21:27:40.109Z,73.50
2019-05-28T21:30:11.228Z,74.60
2019-05-28T21:32:42.157Z,74.90
2019-05-28T21:35:12.420Z,75.80
2019-05-28T21:37:43.061Z,76.20
2019-05-28T21:40:14.058Z,76.90
2019-05-28T21:42:58.525Z,77.50
2019-05-28T21:45:17.662Z,78.10
2019-05-28T21:47:47.895Z,78.90
2019-05-28T21:50:18.385Z,79.50
2019-05-28T21:52:49.506Z,80.10
2019-05-28T21:55:20.098Z,81.40
2019-05-28T21:57:50.480Z,81.50
2019-05-28T22:00:31.869Z,82.30
2019-05-28T22:03:04.964Z,82.40
2019-05-28T22:05:35.489Z,82.60
2019-05-28T22:08:06.147Z,83.00
2019-05-28T22:10:37.660Z,82.60
2019-05-28T22:13:20.487Z,83.20
2019-05-28T22:15:40.539Z,83.70
2019-05-28T22:18:11.303Z,84.70
2019-05-28T22:20:42.418Z,84.80
2019-05-28T22:23:12.917Z,84.60
2019-05-28T22:25:43.740Z,86.00
2019-05-28T22:28:14.105Z,85.80
2019-05-28T22:30:44.497Z,86.00
2019-05-28T22:33:15.273Z,84.50
2019-05-28T22:35:46.120Z,84.90
2019-05-28T22:38:16.855Z,85.20
2019-05-28T22:40:47.473Z,85.90
2019-05-28T22:43:30.748Z,87.00
2019-05-28T22:45:50.890Z,88.20
2019-05-28T22:48:21.213Z,88.20
2019-05-28T22:50:52.331Z,89.00
2019-05-28T22:53:22.713Z,90.00
2019-05-28T22:55:53.233Z,90.90
2019-05-28T22:58:23.940Z,91.60
2019-05-28T23:00:54.601Z,92.40
2019-05-28T23:03:24.832Z,92.50
2019-05-28T23:05:55.139Z,93.10
2019-05-28T23:08:25.727Z,93.90
2019-05-28T23:10:56.940Z,94.60
2019-05-28T23:13:28.718Z,95.00
2019-05-28T23:15:59.898Z,95.90
2019-05-28T23:18:31.529Z,96.50
2019-05-28T23:21:02.626Z,97.30
2019-05-28T23:23:33.040Z,98.10
2019-05-28T23:26:03.315Z,99.20
2019-05-28T23:28:33.536Z,99.90
2019-05-28T23:31:03.886Z,99.90
2019-05-28T23:33:34.271Z,99.90
2019-05-28T23:36:04.510Z,99.90
2019-05-28T23:38:35.186Z,99.90
2019-05-28T23:41:05.653Z,99.90
2019-05-28T23:43:36.593Z,99.90
2019-05-28T23:46:07.826Z,99.90
2019-05-28T23:48:38.876Z,99.90
2019-05-28T23:51:10.463Z,99.90
2019-05-28T23:53:41.011Z,99.90
2019-05-28T23:56:11.741Z,99.90
2019-05-28T23:58:42.632Z,99.90
